createdAt,value
2018-09-30T00:38:59.589Z,1.53
2018-09-30T00:41:59.984Z,1.60
2018-09-30T00:48:22.249Z,1.70
2018-09-30T01:00:49.292Z,1.63
2018-09-30T01:03:59.512Z,1.50
2018-09-30T01:07:02.718Z,1.60
2018-09-30T01:10:37.297Z,1.70
2018-09-30T01:16:50.457Z,1.60
2018-09-30T01:23:07.074Z,1.70
2018-09-30T01:26:08.031Z,1.50
2018-09-30T01:29:00.719Z,1.70
2018-09-30T01:32:09.415Z,1.47
2018-09-30T01:35:06.734Z,1.77
2018-09-30T01:38:02.820Z,1.43
2018-09-30T06:05:40.503Z,1.97
2018-09-30T06:22:04.599Z,2.20
2018-09-30T06:27:17.747Z,2.30
2018-09-30T06:30:07.549Z,2.27
2018-09-30T06:32:45.858Z,2.10
2018-09-30T06:35:21.415Z,2.20
2018-09-30T06:38:02.291Z,1.97
2018-09-30T06:40:49.943Z,2.17
2018-09-30T06:43:28.088Z,1.93
2018-09-30T06:49:05.276Z,2.00
2018-09-30T06:51:54.480Z,2.10
2018-09-30T06:54:29.436Z,2.17
2018-09-30T06:57:04.369Z,2.10
2018-09-30T06:59:41.572Z,2.37
2018-09-30T07:02:17.126Z,2.00
2018-09-30T07:04:56.191Z,2.20
2018-09-30T07:07:34.943Z,2.30
2018-09-30T07:16:13.961Z,1.80
2018-09-30T07:18:51.194Z,2.20
2018-09-30T07:21:28.309Z,2.23
2018-09-30T07:24:16.047Z,2.13
2018-09-30T07:27:00.697Z,2.30
2018-09-30T07:29:40.018Z,2.00
2018-09-30T07:32:16.230Z,2.10
2018-09-30T07:37:32.351Z,2.50
2018-09-30T07:40:14.106Z,2.40
2018-09-30T07:42:52.751Z,2.40
2018-09-30T07:45:27.702Z,2.13
2018-09-30T07:48:05.033Z,2.40
2018-09-30T07:50:41.361Z,2.60
2018-09-30T07:53:18.309Z,2.27
2018-09-30T07:55:57.358Z,2.37
2018-09-30T07:58:52.848Z,2.40
2018-09-30T08:01:30.248Z,2.40
2018-09-30T08:12:21.708Z,2.17
2018-09-30T08:18:27.154Z,2.37
2018-09-30T08:29:12.181Z,2.30
2018-09-30T08:31:52.231Z,2.40
2018-09-30T08:37:07.258Z,2.00
2018-09-30T08:39:44.011Z,2.07
2018-09-30T08:42:21.896Z,2.10
2018-09-30T08:47:34.169Z,2.00
2018-09-30T08:50:12.961Z,2.10
2018-09-30T08:55:25.182Z,1.97
2018-09-30T08:58:00.705Z,2.23
2018-09-30T09:00:39.513Z,2.70
2018-09-30T09:03:14.271Z,1.90
2018-09-30T09:05:54.815Z,2.20
2018-09-30T09:16:29.746Z,2.40
2018-09-30T09:19:05.643Z,2.13
2018-09-30T09:21:40.502Z,1.97
2018-09-30T09:24:15.729Z,2.30
2018-09-30T09:26:51.395Z,2.03
2018-09-30T09:29:27.039Z,2.30
2018-09-30T09:32:05.817Z,2.00
2018-09-30T09:37:22.089Z,2.10
2018-09-30T09:40:01.896Z,1.80
2018-09-30T09:42:36.732Z,1.83
2018-09-30T09:45:16.193Z,2.57
2018-09-30T09:55:48.967Z,1.90
2018-09-30T09:58:28.673Z,1.80
2018-09-30T10:03:49.498Z,1.80
2018-09-30T10:06:25.878Z,2.00
2018-09-30T10:09:00.992Z,1.93
2018-09-30T10:11:38.669Z,2.33
2018-09-30T10:14:16.593Z,2.10
2018-09-30T10:16:54.336Z,1.80
2018-09-30T10:19:29.676Z,1.80
2018-09-30T10:22:05.505Z,1.80
2018-09-30T10:24:41.211Z,2.00
2018-09-30T10:27:15.904Z,2.40
2018-09-30T10:29:54.199Z,2.30
2018-09-30T10:35:05.760Z,2.10
2018-09-30T10:37:42.371Z,2.00
2018-09-30T10:40:16.609Z,1.97
2018-09-30T10:42:53.706Z,1.90
2018-09-30T10:45:32.123Z,1.70
2018-09-30T10:48:06.786Z,1.77
2018-09-30T10:50:42.613Z,2.00
2018-09-30T10:53:26.350Z,1.80
2018-09-30T11:04:38.542Z,1.70
2018-09-30T11:10:06.510Z,1.70
2018-09-30T11:12:42.981Z,1.70
2018-09-30T11:15:19.243Z,1.80
2018-09-30T11:17:58.134Z,2.07
2018-09-30T11:20:32.843Z,1.90
2018-09-30T11:23:07.509Z,2.00
2018-09-30T11:25:46.976Z,1.77
2018-09-30T11:28:22.149Z,1.57
2018-09-30T11:30:56.865Z,1.80
2018-09-30T11:33:31.873Z,1.80
2018-09-30T11:36:06.566Z,1.70
2018-09-30T11:38:41.234Z,1.50
2018-09-30T11:41:15.857Z,1.70
2018-09-30T11:43:50.571Z,1.50
2018-09-30T11:46:25.306Z,2.00
2018-09-30T11:49:00.018Z,1.73
2018-09-30T11:51:34.682Z,1.57
2018-09-30T11:54:09.347Z,1.40
2018-09-30T11:56:44.002Z,1.50
2018-09-30T11:59:18.646Z,1.43
2018-09-30T12:01:53.382Z,1.63
2018-09-30T12:04:28.118Z,1.53
2018-09-30T12:07:02.894Z,2.07
2018-09-30T12:09:37.623Z,1.87
2018-09-30T12:12:12.266Z,1.60
2018-09-30T12:14:46.822Z,1.90
2018-09-30T12:17:21.535Z,1.70
2018-09-30T12:19:56.165Z,1.97
2018-09-30T12:22:30.831Z,1.93
2018-09-30T12:25:05.581Z,1.30
2018-09-30T12:27:40.201Z,1.43
2018-09-30T12:30:14.858Z,1.60
2018-09-30T12:32:49.571Z,1.70
2018-09-30T12:35:24.275Z,1.60
2018-09-30T12:37:58.969Z,1.43
2018-09-30T12:40:33.769Z,1.80
2018-09-30T12:43:08.588Z,2.00
2018-09-30T12:45:43.266Z,1.80
2018-09-30T12:48:17.976Z,1.50
2018-09-30T12:50:52.742Z,1.67
2018-09-30T12:53:27.582Z,1.50
2018-09-30T12:56:02.264Z,1.60
2018-09-30T12:58:36.947Z,1.70
2018-09-30T13:01:11.466Z,1.33
2018-09-30T13:03:46.098Z,1.63
2018-09-30T13:06:20.734Z,1.70
2018-09-30T13:08:55.313Z,1.57
2018-09-30T13:11:30.011Z,1.47
2018-09-30T13:14:04.746Z,1.87
2018-09-30T13:16:39.274Z,1.70
2018-09-30T13:19:13.934Z,1.80
2018-09-30T13:21:48.661Z,1.80
2018-09-30T13:24:23.215Z,1.50
2018-09-30T13:26:57.698Z,1.50
2018-09-30T13:29:32.390Z,1.53
2018-09-30T13:32:07.056Z,1.70
2018-09-30T13:34:41.641Z,1.67
2018-09-30T13:37:16.218Z,1.50
2018-09-30T13:39:50.832Z,1.80
2018-09-30T13:42:25.733Z,2.00
2018-09-30T13:45:00.662Z,1.63
2018-09-30T13:47:35.174Z,1.60
2018-09-30T13:50:09.826Z,1.60
2018-09-30T13:52:44.446Z,1.40
2018-09-30T13:55:19.077Z,1.70
2018-09-30T13:57:53.645Z,2.03
2018-09-30T14:00:28.175Z,1.83
2018-09-30T14:03:02.769Z,1.50
2018-09-30T14:05:37.395Z,1.90
2018-09-30T14:08:11.906Z,1.60
2018-09-30T14:10:46.529Z,1.80
2018-09-30T14:13:21.026Z,1.70
2018-09-30T14:15:55.601Z,1.97
2018-09-30T14:18:30.202Z,1.80
2018-09-30T14:21:04.934Z,1.60
2018-09-30T14:23:39.458Z,1.67
2018-09-30T14:26:14.064Z,2.10
2018-09-30T14:28:48.621Z,1.63
2018-09-30T14:31:23.190Z,1.63
2018-09-30T14:33:57.819Z,1.80
2018-09-30T14:36:32.538Z,1.60
2018-09-30T14:39:09.973Z,1.80
2018-09-30T14:41:44.406Z,2.20
2018-09-30T14:44:18.882Z,2.13
2018-09-30T14:46:53.474Z,1.70
2018-09-30T14:49:27.903Z,2.10
2018-09-30T14:52:02.469Z,1.50
2018-09-30T14:54:37.118Z,1.70
2018-09-30T14:57:11.666Z,2.00
2018-09-30T14:59:46.170Z,3.13
2018-09-30T15:02:20.573Z,4.10
2018-09-30T15:04:55.061Z,9.20
2018-09-30T15:07:29.573Z,14.50
2018-09-30T15:10:10.670Z,8.50
2018-09-30T15:12:45.241Z,12.23
2018-09-30T15:15:19.758Z,13.60
2018-09-30T15:17:54.332Z,10.90
2018-09-30T15:20:28.783Z,10.50
2018-09-30T15:23:03.325Z,8.87
2018-09-30T15:25:37.806Z,7.37
2018-09-30T15:28:12.312Z,6.20
2018-09-30T15:30:46.761Z,3.87
2018-09-30T15:33:21.410Z,2.80
2018-09-30T15:35:56.010Z,2.00
2018-09-30T15:38:30.620Z,2.07
2018-09-30T15:41:05.358Z,2.60
2018-09-30T15:43:40.017Z,1.83
2018-09-30T15:46:14.622Z,2.20
2018-09-30T15:48:49.258Z,1.87
2018-09-30T15:51:23.938Z,2.17
2018-09-30T15:53:58.612Z,1.77
2018-09-30T15:56:33.135Z,2.00
2018-09-30T15:59:07.681Z,1.93
2018-09-30T16:01:42.225Z,2.03
2018-09-30T16:04:16.861Z,2.60
2018-09-30T16:06:51.631Z,2.07
2018-09-30T16:09:26.204Z,2.13
2018-09-30T16:12:00.746Z,2.30
2018-09-30T16:14:35.340Z,2.20
2018-09-30T16:17:10.025Z,2.60
2018-09-30T16:19:44.758Z,2.27
2018-09-30T16:22:19.524Z,2.13
2018-09-30T16:24:54.090Z,2.00
2018-09-30T16:27:28.742Z,2.43
2018-09-30T16:30:03.390Z,2.43
2018-09-30T16:32:37.783Z,2.70
2018-09-30T16:35:12.283Z,2.90
2018-09-30T16:37:47.019Z,2.80
2018-09-30T16:40:21.490Z,3.10
2018-09-30T16:42:56.148Z,2.83
2018-09-30T16:45:30.654Z,2.50
2018-09-30T16:48:05.250Z,1.90
2018-09-30T16:50:39.956Z,2.70
2018-09-30T16:53:14.555Z,2.37
2018-09-30T16:55:48.953Z,2.77
2018-09-30T16:58:23.639Z,2.53
2018-09-30T17:00:58.407Z,2.50
2018-09-30T17:03:33.226Z,2.50
2018-09-30T17:06:08.162Z,2.67
2018-09-30T17:08:42.739Z,2.30
2018-09-30T17:11:18.064Z,2.37
2018-09-30T17:13:52.587Z,2.23
2018-09-30T17:16:27.208Z,2.40
2018-09-30T17:21:35.927Z,2.43
2018-09-30T17:24:33.646Z,1.90
2018-09-30T17:27:08.355Z,2.20
2018-09-30T17:32:42.066Z,2.50
2018-09-30T17:38:04.301Z,2.10
2018-09-30T17:40:44.892Z,3.20
2018-09-30T17:43:24.255Z,3.90
2018-09-30T17:46:04.919Z,2.60
2018-09-30T17:54:28.492Z,2.60
2018-09-30T17:58:13.415Z,2.40
2018-09-30T18:00:53.247Z,2.43
2018-09-30T18:03:28.634Z,2.10
2018-09-30T18:06:09.617Z,2.50
2018-09-30T18:15:37.324Z,2.70
2018-09-30T18:18:20.897Z,2.53
2018-09-30T18:20:55.895Z,2.20
2018-09-30T18:23:31.064Z,2.57
2018-09-30T18:26:09.447Z,2.27
2018-09-30T18:28:49.150Z,2.20
2018-09-30T18:36:50.091Z,2.03
2018-09-30T18:42:04.884Z,2.40
2018-09-30T18:44:41.657Z,2.10
2018-09-30T18:47:17.024Z,2.20
2018-09-30T18:49:51.485Z,2.60
2018-09-30T18:52:25.949Z,2.30
2018-09-30T18:55:00.305Z,2.57
2018-09-30T18:57:34.673Z,2.63
2018-09-30T19:00:09.095Z,2.40
2018-09-30T19:02:43.449Z,2.40
2018-09-30T19:05:20.208Z,2.30
2018-09-30T19:07:56.914Z,1.93
2018-09-30T19:10:32.765Z,2.97
2018-09-30T19:13:12.459Z,2.43
2018-09-30T19:21:02.008Z,2.63
2018-09-30T19:23:36.802Z,2.80
2018-09-30T19:26:12.030Z,2.60
2018-09-30T19:31:23.699Z,2.57
2018-09-30T19:34:01.847Z,2.73
2018-09-30T19:39:12.738Z,2.50
2018-09-30T19:41:48.132Z,3.53
2018-09-30T19:47:02.413Z,3.53
2018-09-30T19:49:37.345Z,2.97
2018-09-30T19:52:12.171Z,2.90
2018-09-30T19:54:49.554Z,2.87
2018-09-30T19:57:25.882Z,2.87
2018-09-30T20:02:38.606Z,3.23
2018-09-30T20:07:51.895Z,3.50
2018-09-30T20:13:08.675Z,4.23
2018-09-30T20:15:44.290Z,3.23
2018-09-30T20:20:56.909Z,3.17
2018-09-30T20:28:47.116Z,3.47
2018-09-30T20:31:23.785Z,2.97
2018-09-30T20:36:39.200Z,3.30
2018-09-30T20:39:18.867Z,3.27
2018-09-30T20:44:32.042Z,2.93
2018-09-30T20:49:46.743Z,3.40
2018-09-30T20:52:21.811Z,3.37
2018-09-30T20:55:00.406Z,3.67
2018-09-30T21:05:46.107Z,3.10
2018-09-30T21:08:21.816Z,3.33
2018-09-30T21:11:01.849Z,3.77
2018-09-30T21:13:37.399Z,3.47
2018-09-30T21:18:50.848Z,3.57
2018-09-30T21:24:03.111Z,3.33
2018-09-30T21:29:16.088Z,3.40
2018-09-30T21:31:55.711Z,3.30
2018-09-30T21:37:08.517Z,3.30
2018-09-30T21:39:44.282Z,3.67
2018-09-30T21:42:26.447Z,3.40
2018-09-30T21:45:03.187Z,3.50
2018-09-30T21:47:45.660Z,3.40
2018-09-30T21:53:03.013Z,3.00
2018-09-30T21:58:18.498Z,3.50
2018-09-30T22:06:16.140Z,3.43
2018-09-30T22:11:28.729Z,3.43
2018-09-30T22:22:02.100Z,3.43
2018-09-30T22:24:39.312Z,3.00
2018-09-30T22:27:18.534Z,3.57
2018-09-30T22:29:57.149Z,3.27
2018-09-30T22:32:36.760Z,3.70
2018-09-30T22:35:14.498Z,3.90
2018-09-30T22:37:50.640Z,3.47
2018-09-30T22:40:27.471Z,3.60
2018-09-30T22:43:07.545Z,3.77
2018-09-30T22:45:46.465Z,3.77
2018-09-30T22:48:22.495Z,3.60
2018-09-30T22:51:02.614Z,3.90
2018-09-30T22:56:20.296Z,3.70
2018-09-30T23:01:32.713Z,3.70
2018-09-30T23:06:47.506Z,3.10
2018-09-30T23:09:25.054Z,3.77
2018-09-30T23:14:38.343Z,3.57
2018-09-30T23:17:14.065Z,3.43
2018-09-30T23:27:42.204Z,4.13
2018-09-30T23:30:20.476Z,3.40
2018-09-30T23:32:56.276Z,3.67
2018-09-30T23:35:31.681Z,3.77
2018-09-30T23:38:08.230Z,3.73
2018-09-30T23:40:45.537Z,3.80
2018-09-30T23:43:25.112Z,3.57
2018-09-30T23:51:15.526Z,3.43
2018-09-30T23:53:51.726Z,3.60
2018-09-30T23:56:28.679Z,3.43
2018-09-30T23:59:04.056Z,4.10
